sensor_id;sensor_type;location;lat;lon;timestamp;temperature;humidity
14097;DHT22;7125;48.106;11.544;2023-06-14T00:00:37;12.40;85.40
14097;DHT22;7125;48.106;11.544;2023-06-14T00:03:06;12.30;85.80
14097;DHT22;7125;48.106;11.544;2023-06-14T00:05:34;12.30;86.00
14097;DHT22;7125;48.106;11.544;2023-06-14T00:08:06;12.30;86.20
14097;DHT22;7125;48.106;11.544;2023-06-14T00:10:35;12.30;86.60
14097;DHT22;7125;48.106;11.544;2023-06-14T00:13:02;12.20;86.90
14097;DHT22;7125;48.106;11.544;2023-06-14T00:15:31;12.20;87.10
14097;DHT22;7125;48.106;11.544;2023-06-14T00:17:58;12.10;87.30
14097;DHT22;7125;48.106;11.544;2023-06-14T00:20:26;12.10;87.70
14097;DHT22;7125;48.106;11.544;2023-06-14T00:22:53;12.10;88.10
14097;DHT22;7125;48.106;11.544;2023-06-14T00:25:21;12.00;88.20
14097;DHT22;7125;48.106;11.544;2023-06-14T00:27:52;12.00;89.20
14097;DHT22;7125;48.106;11.544;2023-06-14T00:30:20;12.00;88.80
14097;DHT22;7125;48.106;11.544;2023-06-14T00:32:48;11.90;89.20
14097;DHT22;7125;48.106;11.544;2023-06-14T00:35:17;11.90;89.30
14097;DHT22;7125;48.106;11.544;2023-06-14T00:37:44;11.90;89.70
14097;DHT22;7125;48.106;11.544;2023-06-14T00:40:11;11.80;90.00
14097;DHT22;7125;48.106;11.544;2023-06-14T00:42:38;11.80;90.20
14097;DHT22;7125;48.106;11.544;2023-06-14T00:45:07;11.80;90.30
14097;DHT22;7125;48.106;11.544;2023-06-14T00:47:36;11.70;90.40
14097;DHT22;7125;48.106;11.544;2023-06-14T00:50:07;11.70;90.50
14097;DHT22;7125;48.106;11.544;2023-06-14T00:52:34;11.60;90.60
14097;DHT22;7125;48.106;11.544;2023-06-14T00:55:01;11.60;90.80
14097;DHT22;7125;48.106;11.544;2023-06-14T00:57:29;11.60;90.90
14097;DHT22;7125;48.106;11.544;2023-06-14T00:59:58;11.60;91.00
14097;DHT22;7125;48.106;11.544;2023-06-14T01:02:27;11.60;91.10
14097;DHT22;7125;48.106;11.544;2023-06-14T01:04:54;11.50;91.20
14097;DHT22;7125;48.106;11.544;2023-06-14T01:07:29;11.50;91.30
14097;DHT22;7125;48.106;11.544;2023-06-14T01:10:16;11.40;91.30
14097;DHT22;7125;48.106;11.544;2023-06-14T01:12:53;11.40;91.40
14097;DHT22;7125;48.106;11.544;2023-06-14T01:15:23;11.40;91.50
14097;DHT22;7125;48.106;11.544;2023-06-14T01:17:52;11.40;91.60
14097;DHT22;7125;48.106;11.544;2023-06-14T01:20:21;11.30;91.60
14097;DHT22;7125;48.106;11.544;2023-06-14T01:22:52;11.30;91.90
14097;DHT22;7125;48.106;11.544;2023-06-14T01:25:20;11.20;91.90
14097;DHT22;7125;48.106;11.544;2023-06-14T01:27:49;11.20;92.10
14097;DHT22;7125;48.106;11.544;2023-06-14T01:30:17;11.10;92.20
14097;DHT22;7125;48.106;11.544;2023-06-14T01:32:47;11.10;92.30
14097;DHT22;7125;48.106;11.544;2023-06-14T01:35:16;11.10;92.50
14097;DHT22;7125;48.106;11.544;2023-06-14T01:37:43;11.10;92.60
14097;DHT22;7125;48.106;11.544;2023-06-14T01:40:15;11.00;92.70
14097;DHT22;7125;48.106;11.544;2023-06-14T01:42:43;11.00;92.80
14097;DHT22;7125;48.106;11.544;2023-06-14T01:45:12;10.90;92.90
14097;DHT22;7125;48.106;11.544;2023-06-14T01:47:40;10.90;92.90
14097;DHT22;7125;48.106;11.544;2023-06-14T01:50:09;10.90;93.00
14097;DHT22;7125;48.106;11.544;2023-06-14T01:52:36;10.90;93.20
14097;DHT22;7125;48.106;11.544;2023-06-14T01:55:04;10.80;93.20
14097;DHT22;7125;48.106;11.544;2023-06-14T01:57:33;10.80;93.30
14097;DHT22;7125;48.106;11.544;2023-06-14T02:00:00;10.80;93.50
14097;DHT22;7125;48.106;11.544;2023-06-14T02:02:38;10.80;93.50
14097;DHT22;7125;48.106;11.544;2023-06-14T02:05:05;10.70;93.50
14097;DHT22;7125;48.106;11.544;2023-06-14T02:07:33;10.70;93.60
14097;DHT22;7125;48.106;11.544;2023-06-14T02:10:00;10.70;93.70
14097;DHT22;7125;48.106;11.544;2023-06-14T02:12:27;10.70;93.60
14097;DHT22;7125;48.106;11.544;2023-06-14T02:14:58;10.60;93.70
14097;DHT22;7125;48.106;11.544;2023-06-14T02:17:26;10.70;93.90
14097;DHT22;7125;48.106;11.544;2023-06-14T02:19:54;10.60;93.90
14097;DHT22;7125;48.106;11.544;2023-06-14T02:22:25;10.60;93.90
14097;DHT22;7125;48.106;11.544;2023-06-14T02:24:52;10.60;94.00
14097;DHT22;7125;48.106;11.544;2023-06-14T02:27:19;10.60;94.00
14097;DHT22;7125;48.106;11.544;2023-06-14T02:29:46;10.50;94.10
14097;DHT22;7125;48.106;11.544;2023-06-14T02:32:14;10.50;94.10
14097;DHT22;7125;48.106;11.544;2023-06-14T02:34:41;10.50;94.20
14097;DHT22;7125;48.106;11.544;2023-06-14T02:37:08;10.50;94.30
14097;DHT22;7125;48.106;11.544;2023-06-14T02:39:36;10.40;94.40
14097;DHT22;7125;48.106;11.544;2023-06-14T02:42:03;10.40;94.40
14097;DHT22;7125;48.106;11.544;2023-06-14T02:44:31;10.40;94.40
14097;DHT22;7125;48.106;11.544;2023-06-14T02:46:59;10.30;94.50
14097;DHT22;7125;48.106;11.544;2023-06-14T02:49:28;10.30;94.70
14097;DHT22;7125;48.106;11.544;2023-06-14T02:51:55;10.20;94.80
14097;DHT22;7125;48.106;11.544;2023-06-14T02:54:22;10.30;95.00
14097;DHT22;7125;48.106;11.544;2023-06-14T02:56:50;10.30;95.30
14097;DHT22;7125;48.106;11.544;2023-06-14T02:59:18;10.20;95.00
14097;DHT22;7125;48.106;11.544;2023-06-14T03:01:48;10.20;95.00
14097;DHT22;7125;48.106;11.544;2023-06-14T03:04:16;10.20;95.20
14097;DHT22;7125;48.106;11.544;2023-06-14T03:06:45;10.20;95.20
14097;DHT22;7125;48.106;11.544;2023-06-14T03:09:17;10.10;95.30
14097;DHT22;7125;48.106;11.544;2023-06-14T03:11:46;10.10;95.40
14097;DHT22;7125;48.106;11.544;2023-06-14T03:14:13;10.10;95.40
14097;DHT22;7125;48.106;11.544;2023-06-14T03:16:43;10.10;95.40
14097;DHT22;7125;48.106;11.544;2023-06-14T03:19:12;10.10;95.50
14097;DHT22;7125;48.106;11.544;2023-06-14T03:21:40;10.10;95.70
14097;DHT22;7125;48.106;11.544;2023-06-14T03:24:11;10.00;95.80
14097;DHT22;7125;48.106;11.544;2023-06-14T03:26:39;10.00;95.90
14097;DHT22;7125;48.106;11.544;2023-06-14T03:29:06;9.90;96.50
14097;DHT22;7125;48.106;11.544;2023-06-14T03:31:34;9.90;96.50
14097;DHT22;7125;48.106;11.544;2023-06-14T03:34:03;9.90;96.60
14097;DHT22;7125;48.106;11.544;2023-06-14T03:36:31;9.90;96.80
14097;DHT22;7125;48.106;11.544;2023-06-14T03:38:59;9.90;96.90
14097;DHT22;7125;48.106;11.544;2023-06-14T03:41:27;9.90;96.90
14097;DHT22;7125;48.106;11.544;2023-06-14T03:43:55;9.80;97.00
14097;DHT22;7125;48.106;11.544;2023-06-14T03:46:22;9.80;97.10
14097;DHT22;7125;48.106;11.544;2023-06-14T03:48:49;9.80;97.20
14097;DHT22;7125;48.106;11.544;2023-06-14T03:51:17;9.90;97.40
14097;DHT22;7125;48.106;11.544;2023-06-14T03:53:44;9.80;97.50
14097;DHT22;7125;48.106;11.544;2023-06-14T03:56:12;9.80;97.60
14097;DHT22;7125;48.106;11.544;2023-06-14T03:58:44;9.90;97.60
14097;DHT22;7125;48.106;11.544;2023-06-14T04:01:11;9.90;97.50
14097;DHT22;7125;48.106;11.544;2023-06-14T04:03:38;9.90;97.60
14097;DHT22;7125;48.106;11.544;2023-06-14T04:06:06;9.90;97.70
14097;DHT22;7125;48.106;11.544;2023-06-14T04:08:33;9.90;97.80
14097;DHT22;7125;48.106;11.544;2023-06-14T04:11:00;9.90;97.90
14097;DHT22;7125;48.106;11.544;2023-06-14T04:13:27;10.00;97.40
14097;DHT22;7125;48.106;11.544;2023-06-14T04:15:56;10.00;97.40
14097;DHT22;7125;48.106;11.544;2023-06-14T04:18:27;10.10;97.30
14097;DHT22;7125;48.106;11.544;2023-06-14T04:20:55;10.20;97.30
14097;DHT22;7125;48.106;11.544;2023-06-14T04:23:23;10.20;97.10
14097;DHT22;7125;48.106;11.544;2023-06-14T04:25:49;10.20;97.00
14097;DHT22;7125;48.106;11.544;2023-06-14T04:28:17;10.30;97.10
14097;DHT22;7125;48.106;11.544;2023-06-14T04:30:45;10.30;97.10
14097;DHT22;7125;48.106;11.544;2023-06-14T04:33:15;10.40;97.00
14097;DHT22;7125;48.106;11.544;2023-06-14T04:35:43;10.50;96.90
14097;DHT22;7125;48.106;11.544;2023-06-14T04:38:13;10.50;96.70
14097;DHT22;7125;48.106;11.544;2023-06-14T04:40:41;10.60;96.70
14097;DHT22;7125;48.106;11.544;2023-06-14T04:43:11;10.70;96.40
14097;DHT22;7125;48.106;11.544;2023-06-14T04:45:40;10.80;96.70
14097;DHT22;7125;48.106;11.544;2023-06-14T04:48:10;10.90;95.80
14097;DHT22;7125;48.106;11.544;2023-06-14T04:50:39;11.00;95.80
14097;DHT22;7125;48.106;11.544;2023-06-14T04:53:07;11.00;95.70
14097;DHT22;7125;48.106;11.544;2023-06-14T04:55:35;11.10;95.70
14097;DHT22;7125;48.106;11.544;2023-06-14T04:58:04;11.20;95.70
14097;DHT22;7125;48.106;11.544;2023-06-14T05:00:32;11.30;95.80
14097;DHT22;7125;48.106;11.544;2023-06-14T05:02:58;11.30;95.40
14097;DHT22;7125;48.106;11.544;2023-06-14T05:05:26;11.50;95.10
14097;DHT22;7125;48.106;11.544;2023-06-14T05:07:55;11.50;94.50
14097;DHT22;7125;48.106;11.544;2023-06-14T05:10:22;11.70;94.50
14097;DHT22;7125;48.106;11.544;2023-06-14T05:12:49;11.80;94.80
14097;DHT22;7125;48.106;11.544;2023-06-14T05:15:18;11.90;95.00
14097;DHT22;7125;48.106;11.544;2023-06-14T05:17:45;11.90;94.70
14097;DHT22;7125;48.106;11.544;2023-06-14T05:20:13;12.10;93.60
14097;DHT22;7125;48.106;11.544;2023-06-14T05:22:40;12.20;93.40
14097;DHT22;7125;48.106;11.544;2023-06-14T05:25:09;12.30;92.80
14097;DHT22;7125;48.106;11.544;2023-06-14T05:27:36;12.40;92.90
14097;DHT22;7125;48.106;11.544;2023-06-14T05:30:04;12.50;93.30
14097;DHT22;7125;48.106;11.544;2023-06-14T05:32:31;12.60;93.70
14097;DHT22;7125;48.106;11.544;2023-06-14T05:34:58;12.60;94.00
14097;DHT22;7125;48.106;11.544;2023-06-14T05:37:25;12.70;93.30
14097;DHT22;7125;48.106;11.544;2023-06-14T05:39:52;12.80;92.90
14097;DHT22;7125;48.106;11.544;2023-06-14T05:42:20;12.80;92.50
14097;DHT22;7125;48.106;11.544;2023-06-14T05:44:47;12.90;92.20
14097;DHT22;7125;48.106;11.544;2023-06-14T05:47:14;13.00;91.60
14097;DHT22;7125;48.106;11.544;2023-06-14T05:49:41;13.10;91.00
14097;DHT22;7125;48.106;11.544;2023-06-14T05:52:10;13.20;91.00
14097;DHT22;7125;48.106;11.544;2023-06-14T05:54:38;13.30;91.20
14097;DHT22;7125;48.106;11.544;2023-06-14T05:57:07;13.40;90.80
14097;DHT22;7125;48.106;11.544;2023-06-14T05:59:35;13.50;90.40
14097;DHT22;7125;48.106;11.544;2023-06-14T06:02:02;13.60;90.50
14097;DHT22;7125;48.106;11.544;2023-06-14T06:04:29;13.60;90.10
14097;DHT22;7125;48.106;11.544;2023-06-14T06:06:56;13.80;89.40
14097;DHT22;7125;48.106;11.544;2023-06-14T06:09:23;13.90;88.90
14097;DHT22;7125;48.106;11.544;2023-06-14T06:11:50;14.10;88.40
14097;DHT22;7125;48.106;11.544;2023-06-14T06:14:17;14.10;88.80
14097;DHT22;7125;48.106;11.544;2023-06-14T06:16:45;14.20;90.10
14097;DHT22;7125;48.106;11.544;2023-06-14T06:19:12;14.40;88.10
14097;DHT22;7125;48.106;11.544;2023-06-14T06:21:39;14.50;89.10
14097;DHT22;7125;48.106;11.544;2023-06-14T06:24:06;14.70;88.30
14097;DHT22;7125;48.106;11.544;2023-06-14T06:26:33;14.80;87.60
14097;DHT22;7125;48.106;11.544;2023-06-14T06:29:00;14.90;87.50
14097;DHT22;7125;48.106;11.544;2023-06-14T06:31:27;15.00;87.20
14097;DHT22;7125;48.106;11.544;2023-06-14T06:33:55;15.20;85.30
14097;DHT22;7125;48.106;11.544;2023-06-14T06:36:22;15.30;86.00
14097;DHT22;7125;48.106;11.544;2023-06-14T06:38:50;15.40;86.60
14097;DHT22;7125;48.106;11.544;2023-06-14T06:41:18;15.60;86.80
14097;DHT22;7125;48.106;11.544;2023-06-14T06:43:44;15.80;85.40
14097;DHT22;7125;48.106;11.544;2023-06-14T06:46:16;15.90;84.50
14097;DHT22;7125;48.106;11.544;2023-06-14T06:48:45;16.10;85.60
14097;DHT22;7125;48.106;11.544;2023-06-14T06:51:14;16.30;84.00
14097;DHT22;7125;48.106;11.544;2023-06-14T06:53:42;16.50;83.20
14097;DHT22;7125;48.106;11.544;2023-06-14T06:56:10;16.60;80.40
14097;DHT22;7125;48.106;11.544;2023-06-14T06:58:38;16.80;80.30
14097;DHT22;7125;48.106;11.544;2023-06-14T07:01:05;16.90;80.20
14097;DHT22;7125;48.106;11.544;2023-06-14T07:03:32;17.10;79.10
14097;DHT22;7125;48.106;11.544;2023-06-14T07:05:58;17.30;78.60
14097;DHT22;7125;48.106;11.544;2023-06-14T07:08:27;17.40;78.70
14097;DHT22;7125;48.106;11.544;2023-06-14T07:10:54;17.50;77.10
14097;DHT22;7125;48.106;11.544;2023-06-14T07:13:20;17.60;77.10
14097;DHT22;7125;48.106;11.544;2023-06-14T07:15:49;17.70;78.00
14097;DHT22;7125;48.106;11.544;2023-06-14T07:18:16;17.70;78.40
14097;DHT22;7125;48.106;11.544;2023-06-14T07:20:43;17.80;77.20
14097;DHT22;7125;48.106;11.544;2023-06-14T07:23:10;17.80;77.40
14097;DHT22;7125;48.106;11.544;2023-06-14T07:25:39;18.00;75.60
14097;DHT22;7125;48.106;11.544;2023-06-14T07:28:05;18.10;75.30
14097;DHT22;7125;48.106;11.544;2023-06-14T07:30:32;18.20;75.80
14097;DHT22;7125;48.106;11.544;2023-06-14T07:32:59;18.30;76.40
14097;DHT22;7125;48.106;11.544;2023-06-14T07:35:26;18.40;77.60
14097;DHT22;7125;48.106;11.544;2023-06-14T07:37:53;18.50;77.60
14097;DHT22;7125;48.106;11.544;2023-06-14T07:40:20;18.70;76.00
14097;DHT22;7125;48.106;11.544;2023-06-14T07:42:48;18.80;74.90
14097;DHT22;7125;48.106;11.544;2023-06-14T07:45:16;18.90;73.10
14097;DHT22;7125;48.106;11.544;2023-06-14T07:47:43;19.00;71.60
14097;DHT22;7125;48.106;11.544;2023-06-14T07:50:10;19.10;72.30
14097;DHT22;7125;48.106;11.544;2023-06-14T07:52:39;19.10;73.50
14097;DHT22;7125;48.106;11.544;2023-06-14T07:55:06;19.10;73.00
14097;DHT22;7125;48.106;11.544;2023-06-14T07:57:33;19.20;71.30
14097;DHT22;7125;48.106;11.544;2023-06-14T08:00:02;19.20;69.60
14097;DHT22;7125;48.106;11.544;2023-06-14T08:02:37;19.40;68.90
14097;DHT22;7125;48.106;11.544;2023-06-14T08:05:07;19.50;68.90
14097;DHT22;7125;48.106;11.544;2023-06-14T08:07:34;19.60;68.10
14097;DHT22;7125;48.106;11.544;2023-06-14T08:10:01;19.70;67.00
14097;DHT22;7125;48.106;11.544;2023-06-14T08:12:28;19.70;66.40
14097;DHT22;7125;48.106;11.544;2023-06-14T08:14:55;19.80;66.80
14097;DHT22;7125;48.106;11.544;2023-06-14T08:17:23;19.90;67.50
14097;DHT22;7125;48.106;11.544;2023-06-14T08:19:50;20.00;67.10
14097;DHT22;7125;48.106;11.544;2023-06-14T08:22:17;20.10;64.00
14097;DHT22;7125;48.106;11.544;2023-06-14T08:24:45;20.10;64.10
14097;DHT22;7125;48.106;11.544;2023-06-14T08:27:12;20.20;63.80
14097;DHT22;7125;48.106;11.544;2023-06-14T08:29:40;20.30;63.40
14097;DHT22;7125;48.106;11.544;2023-06-14T08:32:07;20.40;63.40
14097;DHT22;7125;48.106;11.544;2023-06-14T08:34:35;20.50;63.80
14097;DHT22;7125;48.106;11.544;2023-06-14T08:37:02;20.60;60.00
14097;DHT22;7125;48.106;11.544;2023-06-14T08:39:30;20.60;61.90
14097;DHT22;7125;48.106;11.544;2023-06-14T08:41:58;20.60;59.70
14097;DHT22;7125;48.106;11.544;2023-06-14T08:44:28;20.60;59.60
14097;DHT22;7125;48.106;11.544;2023-06-14T08:46:55;20.70;58.50
14097;DHT22;7125;48.106;11.544;2023-06-14T08:49:25;20.70;57.70
14097;DHT22;7125;48.106;11.544;2023-06-14T08:51:57;20.80;57.70
14097;DHT22;7125;48.106;11.544;2023-06-14T08:54:26;20.90;58.90
14097;DHT22;7125;48.106;11.544;2023-06-14T08:56:56;21.00;56.50
14097;DHT22;7125;48.106;11.544;2023-06-14T08:59:26;21.10;56.60
14097;DHT22;7125;48.106;11.544;2023-06-14T09:01:53;21.30;56.60
14097;DHT22;7125;48.106;11.544;2023-06-14T09:04:20;21.40;56.60
14097;DHT22;7125;48.106;11.544;2023-06-14T09:06:48;21.60;57.90
14097;DHT22;7125;48.106;11.544;2023-06-14T09:09:19;21.60;57.50
14097;DHT22;7125;48.106;11.544;2023-06-14T09:11:49;21.80;56.70
14097;DHT22;7125;48.106;11.544;2023-06-14T09:14:17;21.80;55.70
14097;DHT22;7125;48.106;11.544;2023-06-14T09:16:44;21.90;54.80
14097;DHT22;7125;48.106;11.544;2023-06-14T09:19:20;21.80;55.20
14097;DHT22;7125;48.106;11.544;2023-06-14T09:21:48;21.80;54.80
14097;DHT22;7125;48.106;11.544;2023-06-14T09:24:14;21.80;54.30
14097;DHT22;7125;48.106;11.544;2023-06-14T09:26:43;21.80;55.90
14097;DHT22;7125;48.106;11.544;2023-06-14T09:29:10;21.80;55.60
14097;DHT22;7125;48.106;11.544;2023-06-14T09:31:37;21.90;55.50
14097;DHT22;7125;48.106;11.544;2023-06-14T09:34:05;22.00;55.50
14097;DHT22;7125;48.106;11.544;2023-06-14T09:36:32;22.10;55.40
14097;DHT22;7125;48.106;11.544;2023-06-14T09:39:00;22.10;55.00
14097;DHT22;7125;48.106;11.544;2023-06-14T09:41:32;22.20;53.80
14097;DHT22;7125;48.106;11.544;2023-06-14T09:44:01;22.40;54.70
14097;DHT22;7125;48.106;11.544;2023-06-14T09:46:30;22.50;55.20
14097;DHT22;7125;48.106;11.544;2023-06-14T09:48:57;22.40;53.80
14097;DHT22;7125;48.106;11.544;2023-06-14T09:51:25;22.20;55.30
14097;DHT22;7125;48.106;11.544;2023-06-14T09:53:53;22.00;56.90
14097;DHT22;7125;48.106;11.544;2023-06-14T09:56:27;21.80;56.60
14097;DHT22;7125;48.106;11.544;2023-06-14T09:58:56;21.60;56.70
14097;DHT22;7125;48.106;11.544;2023-06-14T10:01:26;21.50;57.20
14097;DHT22;7125;48.106;11.544;2023-06-14T10:03:55;21.40;57.70
14097;DHT22;7125;48.106;11.544;2023-06-14T10:06:27;21.50;57.60
14097;DHT22;7125;48.106;11.544;2023-06-14T10:08:57;21.70;57.20
14097;DHT22;7125;48.106;11.544;2023-06-14T10:11:26;21.90;56.80
14097;DHT22;7125;48.106;11.544;2023-06-14T10:13:54;22.10;56.60
14097;DHT22;7125;48.106;11.544;2023-06-14T10:16:27;22.30;56.10
14097;DHT22;7125;48.106;11.544;2023-06-14T10:19:02;22.40;55.30
14097;DHT22;7125;48.106;11.544;2023-06-14T10:21:36;22.40;55.60
14097;DHT22;7125;48.106;11.544;2023-06-14T10:24:07;22.40;55.60
14097;DHT22;7125;48.106;11.544;2023-06-14T10:26:50;22.50;53.90
14097;DHT22;7125;48.106;11.544;2023-06-14T10:29:17;22.30;54.80
14097;DHT22;7125;48.106;11.544;2023-06-14T10:31:47;22.30;54.70
14097;DHT22;7125;48.106;11.544;2023-06-14T10:34:22;22.40;54.90
14097;DHT22;7125;48.106;11.544;2023-06-14T10:37:01;22.70;54.30
14097;DHT22;7125;48.106;11.544;2023-06-14T10:39:30;22.80;53.20
14097;DHT22;7125;48.106;11.544;2023-06-14T10:41:58;22.80;52.20
14097;DHT22;7125;48.106;11.544;2023-06-14T10:44:38;22.90;54.40
14097;DHT22;7125;48.106;11.544;2023-06-14T10:47:27;23.10;53.70
14097;DHT22;7125;48.106;11.544;2023-06-14T10:49:55;23.40;53.80
14097;DHT22;7125;48.106;11.544;2023-06-14T10:52:25;23.60;52.20
14097;DHT22;7125;48.106;11.544;2023-06-14T10:55:09;23.70;53.40
14097;DHT22;7125;48.106;11.544;2023-06-14T10:57:38;23.80;52.50
14097;DHT22;7125;48.106;11.544;2023-06-14T11:00:07;23.60;52.90
14097;DHT22;7125;48.106;11.544;2023-06-14T11:02:52;23.70;54.80
14097;DHT22;7125;48.106;11.544;2023-06-14T11:05:27;23.60;54.60
14097;DHT22;7125;48.106;11.544;2023-06-14T11:08:18;23.50;56.50
14097;DHT22;7125;48.106;11.544;2023-06-14T11:10:54;23.20;56.00
14097;DHT22;7125;48.106;11.544;2023-06-14T11:13:25;23.00;55.80
14097;DHT22;7125;48.106;11.544;2023-06-14T11:15:52;23.00;57.50
14097;DHT22;7125;48.106;11.544;2023-06-14T11:18:23;23.10;55.90
14097;DHT22;7125;48.106;11.544;2023-06-14T11:20:53;23.20;56.60
14097;DHT22;7125;48.106;11.544;2023-06-14T11:23:21;23.30;55.30
14097;DHT22;7125;48.106;11.544;2023-06-14T11:25:52;23.40;56.10
14097;DHT22;7125;48.106;11.544;2023-06-14T11:28:19;23.60;54.00
14097;DHT22;7125;48.106;11.544;2023-06-14T11:30:47;23.60;53.20
14097;DHT22;7125;48.106;11.544;2023-06-14T11:33:17;23.50;54.90
14097;DHT22;7125;48.106;11.544;2023-06-14T11:35:46;23.60;52.90
14097;DHT22;7125;48.106;11.544;2023-06-14T11:38:13;23.80;54.20
14097;DHT22;7125;48.106;11.544;2023-06-14T11:40:40;23.90;53.10
14097;DHT22;7125;48.106;11.544;2023-06-14T11:43:07;23.90;52.90
14097;DHT22;7125;48.106;11.544;2023-06-14T11:45:34;23.90;52.10
14097;DHT22;7125;48.106;11.544;2023-06-14T11:48:00;23.70;52.50
14097;DHT22;7125;48.106;11.544;2023-06-14T11:50:28;23.30;52.40
14097;DHT22;7125;48.106;11.544;2023-06-14T11:52:57;23.10;53.00
14097;DHT22;7125;48.106;11.544;2023-06-14T11:55:25;23.20;54.10
14097;DHT22;7125;48.106;11.544;2023-06-14T11:57:54;23.20;52.90
14097;DHT22;7125;48.106;11.544;2023-06-14T12:00:24;23.00;53.90
14097;DHT22;7125;48.106;11.544;2023-06-14T12:02:53;22.90;54.30
14097;DHT22;7125;48.106;11.544;2023-06-14T12:05:21;22.70;52.70
14097;DHT22;7125;48.106;11.544;2023-06-14T12:07:49;22.80;53.20
14097;DHT22;7125;48.106;11.544;2023-06-14T12:10:20;23.00;53.80
14097;DHT22;7125;48.106;11.544;2023-06-14T12:12:47;23.20;54.00
14097;DHT22;7125;48.106;11.544;2023-06-14T12:15:14;23.20;53.00
14097;DHT22;7125;48.106;11.544;2023-06-14T12:17:42;23.30;52.60
14097;DHT22;7125;48.106;11.544;2023-06-14T12:20:10;23.50;51.90
14097;DHT22;7125;48.106;11.544;2023-06-14T12:22:46;23.80;52.30
14097;DHT22;7125;48.106;11.544;2023-06-14T12:25:28;24.00;52.20
14097;DHT22;7125;48.106;11.544;2023-06-14T12:27:57;24.20;51.10
14097;DHT22;7125;48.106;11.544;2023-06-14T12:30:24;24.40;50.40
14097;DHT22;7125;48.106;11.544;2023-06-14T12:32:51;24.40;52.40
14097;DHT22;7125;48.106;11.544;2023-06-14T12:35:18;24.60;51.90
14097;DHT22;7125;48.106;11.544;2023-06-14T12:37:45;24.80;51.40
14097;DHT22;7125;48.106;11.544;2023-06-14T12:40:13;24.70;50.90
14097;DHT22;7125;48.106;11.544;2023-06-14T12:42:42;24.80;51.20
14097;DHT22;7125;48.106;11.544;2023-06-14T12:45:09;24.80;48.50
14097;DHT22;7125;48.106;11.544;2023-06-14T12:47:36;24.80;49.00
14097;DHT22;7125;48.106;11.544;2023-06-14T12:50:04;24.80;49.30
14097;DHT22;7125;48.106;11.544;2023-06-14T12:52:32;24.80;50.40
14097;DHT22;7125;48.106;11.544;2023-06-14T12:55:02;25.00;48.90
14097;DHT22;7125;48.106;11.544;2023-06-14T12:57:29;25.10;51.10
14097;DHT22;7125;48.106;11.544;2023-06-14T12:59:59;25.40;49.00
14097;DHT22;7125;48.106;11.544;2023-06-14T13:02:26;25.40;47.50
14097;DHT22;7125;48.106;11.544;2023-06-14T13:04:53;25.30;49.10
14097;DHT22;7125;48.106;11.544;2023-06-14T13:07:20;25.30;47.10
14097;DHT22;7125;48.106;11.544;2023-06-14T13:09:47;25.30;48.30
14097;DHT22;7125;48.106;11.544;2023-06-14T13:12:14;25.30;49.40
14097;DHT22;7125;48.106;11.544;2023-06-14T13:14:41;25.40;48.70
14097;DHT22;7125;48.106;11.544;2023-06-14T13:17:10;25.30;49.50
14097;DHT22;7125;48.106;11.544;2023-06-14T13:19:37;25.30;49.30
14097;DHT22;7125;48.106;11.544;2023-06-14T13:22:04;25.30;49.60
14097;DHT22;7125;48.106;11.544;2023-06-14T13:24:31;25.50;49.60
14097;DHT22;7125;48.106;11.544;2023-06-14T13:26:58;25.60;49.90
14097;DHT22;7125;48.106;11.544;2023-06-14T13:29:25;25.90;48.50
14097;DHT22;7125;48.106;11.544;2023-06-14T13:31:53;25.90;46.90
14097;DHT22;7125;48.106;11.544;2023-06-14T13:34:22;25.90;47.70
14097;DHT22;7125;48.106;11.544;2023-06-14T13:36:49;25.80;47.20
14097;DHT22;7125;48.106;11.544;2023-06-14T13:39:16;25.70;46.90
14097;DHT22;7125;48.106;11.544;2023-06-14T13:41:43;25.70;47.10
14097;DHT22;7125;48.106;11.544;2023-06-14T13:44:10;25.70;48.20
14097;DHT22;7125;48.106;11.544;2023-06-14T13:46:43;25.80;47.70
14097;DHT22;7125;48.106;11.544;2023-06-14T13:49:09;25.90;48.30
14097;DHT22;7125;48.106;11.544;2023-06-14T13:51:39;26.00;47.20
14097;DHT22;7125;48.106;11.544;2023-06-14T13:54:06;26.10;47.00
14097;DHT22;7125;48.106;11.544;2023-06-14T13:56:33;26.00;45.20
14097;DHT22;7125;48.106;11.544;2023-06-14T13:59:00;25.70;46.70
14097;DHT22;7125;48.106;11.544;2023-06-14T14:01:27;25.30;46.20
14097;DHT22;7125;48.106;11.544;2023-06-14T14:03:54;25.00;48.00
14097;DHT22;7125;48.106;11.544;2023-06-14T14:06:21;24.70;46.80
14097;DHT22;7125;48.106;11.544;2023-06-14T14:08:50;24.50;48.20
14097;DHT22;7125;48.106;11.544;2023-06-14T14:11:18;24.30;47.50
14097;DHT22;7125;48.106;11.544;2023-06-14T14:13:45;24.10;47.20
14097;DHT22;7125;48.106;11.544;2023-06-14T14:16:12;24.30;48.10
14097;DHT22;7125;48.106;11.544;2023-06-14T14:18:39;24.60;47.90
14097;DHT22;7125;48.106;11.544;2023-06-14T14:21:06;24.80;47.70
14097;DHT22;7125;48.106;11.544;2023-06-14T14:23:35;25.10;46.40
14097;DHT22;7125;48.106;11.544;2023-06-14T14:26:03;25.30;47.40
14097;DHT22;7125;48.106;11.544;2023-06-14T14:28:31;25.50;44.80
14097;DHT22;7125;48.106;11.544;2023-06-14T14:30:59;25.60;46.10
14097;DHT22;7125;48.106;11.544;2023-06-14T14:33:26;25.80;46.20
14097;DHT22;7125;48.106;11.544;2023-06-14T14:35:53;25.90;45.40
14097;DHT22;7125;48.106;11.544;2023-06-14T14:38:20;25.90;44.50
14097;DHT22;7125;48.106;11.544;2023-06-14T14:40:47;25.90;45.40
14097;DHT22;7125;48.106;11.544;2023-06-14T14:43:16;26.00;45.50
14097;DHT22;7125;48.106;11.544;2023-06-14T14:45:43;26.10;46.30
14097;DHT22;7125;48.106;11.544;2023-06-14T14:48:10;26.30;44.70
14097;DHT22;7125;48.106;11.544;2023-06-14T14:50:37;26.30;45.20
14097;DHT22;7125;48.106;11.544;2023-06-14T14:53:05;26.30;44.70
14097;DHT22;7125;48.106;11.544;2023-06-14T14:55:32;26.20;45.40
14097;DHT22;7125;48.106;11.544;2023-06-14T14:58:01;26.30;43.40
14097;DHT22;7125;48.106;11.544;2023-06-14T15:00:31;26.30;45.60
14097;DHT22;7125;48.106;11.544;2023-06-14T15:02:58;26.30;43.60
14097;DHT22;7125;48.106;11.544;2023-06-14T15:05:25;26.10;43.70
14097;DHT22;7125;48.106;11.544;2023-06-14T15:07:52;26.10;44.40
14097;DHT22;7125;48.106;11.544;2023-06-14T15:10:21;26.10;45.50
14097;DHT22;7125;48.106;11.544;2023-06-14T15:12:48;26.00;45.80
14097;DHT22;7125;48.106;11.544;2023-06-14T15:15:15;26.00;45.80
14097;DHT22;7125;48.106;11.544;2023-06-14T15:17:43;26.10;46.30
14097;DHT22;7125;48.106;11.544;2023-06-14T15:20:11;26.20;45.60
14097;DHT22;7125;48.106;11.544;2023-06-14T15:22:40;26.20;46.30
14097;DHT22;7125;48.106;11.544;2023-06-14T15:25:07;26.20;45.30
14097;DHT22;7125;48.106;11.544;2023-06-14T15:27:34;26.20;46.00
14097;DHT22;7125;48.106;11.544;2023-06-14T15:30:01;25.90;45.60
14097;DHT22;7125;48.106;11.544;2023-06-14T15:32:28;25.80;46.00
14097;DHT22;7125;48.106;11.544;2023-06-14T15:34:57;25.80;46.10
14097;DHT22;7125;48.106;11.544;2023-06-14T15:37:24;25.90;47.20
14097;DHT22;7125;48.106;11.544;2023-06-14T15:39:51;25.90;45.40